sensor_id;sensor_type;location;lat;lon;timestamp;P1;durP1;ratioP1;P2;durP2;ratioP2
72408;SDS011;60402;48.082;11.628;2022-10-26T00:01:04;3.55;;;1.42;;
72408;SDS011;60402;48.082;11.628;2022-10-26T00:03:32;4.95;;;1.80;;
72408;SDS011;60402;48.082;11.628;2022-10-26T00:06:05;3.58;;;1.58;;
72408;SDS011;60402;48.082;11.628;2022-10-26T00:08:32;2.10;;;1.17;;
72408;SDS011;60402;48.082;11.628;2022-10-26T00:10:58;5.97;;;1.70;;
72408;SDS011;60402;48.082;11.628;2022-10-26T00:13:23;4.10;;;1.33;;
72408;SDS011;60402;48.082;11.628;2022-10-26T00:15:49;4.25;;;1.33;;
72408;SDS011;60402;48.082;11.628;2022-10-26T00:18:14;4.72;;;1.30;;
72408;SDS011;60402;48.082;11.628;2022-10-26T00:20:40;3.22;;;1.30;;
72408;SDS011;60402;48.082;11.628;2022-10-26T00:23:06;3.85;;;1.27;;
72408;SDS011;60402;48.082;11.628;2022-10-26T00:25:32;2.42;;;1.30;;
72408;SDS011;60402;48.082;11.628;2022-10-26T00:28:00;3.67;;;1.30;;
72408;SDS011;60402;48.082;11.628;2022-10-26T00:30:25;4.50;;;1.38;;
72408;SDS011;60402;48.082;11.628;2022-10-26T00:32:51;2.97;;;1.20;;
72408;SDS011;60402;48.082;11.628;2022-10-26T00:35:16;5.03;;;1.50;;
72408;SDS011;60402;48.082;11.628;2022-10-26T00:37:42;3.78;;;1.40;;
72408;SDS011;60402;48.082;11.628;2022-10-26T00:40:07;2.40;;;1.48;;
72408;SDS011;60402;48.082;11.628;2022-10-26T00:42:33;3.78;;;1.60;;
72408;SDS011;60402;48.082;11.628;2022-10-26T00:44:59;3.67;;;1.35;;
72408;SDS011;60402;48.082;11.628;2022-10-26T00:47:33;5.78;;;1.40;;
72408;SDS011;60402;48.082;11.628;2022-10-26T00:50:04;4.13;;;1.20;;
72408;SDS011;60402;48.082;11.628;2022-10-26T00:52:33;3.10;;;1.20;;
72408;SDS011;60402;48.082;11.628;2022-10-26T00:55:00;3.17;;;1.48;;
72408;SDS011;60402;48.082;11.628;2022-10-26T00:57:26;3.30;;;1.17;;
72408;SDS011;60402;48.082;11.628;2022-10-26T00:59:57;5.78;;;1.63;;
72408;SDS011;60402;48.082;11.628;2022-10-26T01:02:24;3.65;;;1.42;;
72408;SDS011;60402;48.082;11.628;2022-10-26T01:04:49;3.47;;;1.38;;
72408;SDS011;60402;48.082;11.628;2022-10-26T01:07:16;3.28;;;1.38;;
72408;SDS011;60402;48.082;11.628;2022-10-26T01:09:42;4.30;;;1.27;;
72408;SDS011;60402;48.082;11.628;2022-10-26T01:12:07;4.13;;;1.30;;
72408;SDS011;60402;48.082;11.628;2022-10-26T01:14:33;3.45;;;1.15;;
72408;SDS011;60402;48.082;11.628;2022-10-26T01:17:12;2.15;;;1.20;;
72408;SDS011;60402;48.082;11.628;2022-10-26T01:22:46;2.67;;;1.23;;
72408;SDS011;60402;48.082;11.628;2022-10-26T01:27:52;4.00;;;1.35;;
72408;SDS011;60402;48.082;11.628;2022-10-26T01:30:19;3.03;;;1.38;;
72408;SDS011;60402;48.082;11.628;2022-10-26T01:36:08;4.78;;;1.27;;
72408;SDS011;60402;48.082;11.628;2022-10-26T01:38:51;3.40;;;1.30;;
72408;SDS011;60402;48.082;11.628;2022-10-26T01:41:35;2.70;;;0.90;;
72408;SDS011;60402;48.082;11.628;2022-10-26T01:44:08;4.50;;;1.20;;
72408;SDS011;60402;48.082;11.628;2022-10-26T01:46:40;4.13;;;1.35;;
72408;SDS011;60402;48.082;11.628;2022-10-26T01:49:09;2.47;;;1.08;;
72408;SDS011;60402;48.082;11.628;2022-10-26T01:51:39;2.53;;;1.02;;
72408;SDS011;60402;48.082;11.628;2022-10-26T01:54:07;2.63;;;0.95;;
72408;SDS011;60402;48.082;11.628;2022-10-26T01:56:38;2.80;;;1.08;;
72408;SDS011;60402;48.082;11.628;2022-10-26T02:05:29;2.30;;;0.90;;
72408;SDS011;60402;48.082;11.628;2022-10-26T02:10:42;6.05;;;0.85;;
72408;SDS011;60402;48.082;11.628;2022-10-26T02:13:20;2.17;;;0.82;;
72408;SDS011;60402;48.082;11.628;2022-10-26T02:15:56;3.15;;;1.02;;
72408;SDS011;60402;48.082;11.628;2022-10-26T02:21:13;2.30;;;1.05;;
72408;SDS011;60402;48.082;11.628;2022-10-26T02:23:43;4.18;;;1.10;;
72408;SDS011;60402;48.082;11.628;2022-10-26T02:26:12;2.97;;;1.40;;
72408;SDS011;60402;48.082;11.628;2022-10-26T02:28:42;3.45;;;1.13;;
72408;SDS011;60402;48.082;11.628;2022-10-26T02:31:10;2.35;;;0.90;;
72408;SDS011;60402;48.082;11.628;2022-10-26T02:33:39;2.90;;;1.13;;
72408;SDS011;60402;48.082;11.628;2022-10-26T02:36:10;2.85;;;1.00;;
72408;SDS011;60402;48.082;11.628;2022-10-26T02:38:42;2.45;;;1.00;;
72408;SDS011;60402;48.082;11.628;2022-10-26T02:41:10;2.45;;;1.08;;
72408;SDS011;60402;48.082;11.628;2022-10-26T02:43:40;2.33;;;1.00;;
72408;SDS011;60402;48.082;11.628;2022-10-26T02:46:10;3.17;;;1.10;;
72408;SDS011;60402;48.082;11.628;2022-10-26T02:48:40;2.38;;;1.00;;
72408;SDS011;60402;48.082;11.628;2022-10-26T02:51:27;4.88;;;1.20;;
72408;SDS011;60402;48.082;11.628;2022-10-26T02:54:18;4.45;;;1.17;;
72408;SDS011;60402;48.082;11.628;2022-10-26T02:57:16;2.08;;;0.95;;
72408;SDS011;60402;48.082;11.628;2022-10-26T02:59:45;2.13;;;0.98;;
72408;SDS011;60402;48.082;11.628;2022-10-26T03:02:12;1.95;;;1.10;;
72408;SDS011;60402;48.082;11.628;2022-10-26T03:04:40;3.15;;;1.10;;
72408;SDS011;60402;48.082;11.628;2022-10-26T03:07:05;2.33;;;1.08;;
72408;SDS011;60402;48.082;11.628;2022-10-26T03:09:31;2.75;;;1.13;;
72408;SDS011;60402;48.082;11.628;2022-10-26T03:11:56;4.68;;;1.10;;
72408;SDS011;60402;48.082;11.628;2022-10-26T03:14:21;2.67;;;0.93;;
72408;SDS011;60402;48.082;11.628;2022-10-26T03:16:47;4.07;;;1.00;;
72408;SDS011;60402;48.082;11.628;2022-10-26T03:19:12;3.42;;;0.95;;
72408;SDS011;60402;48.082;11.628;2022-10-26T03:21:37;3.28;;;1.30;;
72408;SDS011;60402;48.082;11.628;2022-10-26T03:24:03;1.52;;;0.93;;
72408;SDS011;60402;48.082;11.628;2022-10-26T03:26:28;2.97;;;1.52;;
72408;SDS011;60402;48.082;11.628;2022-10-26T03:28:54;5.32;;;1.27;;
72408;SDS011;60402;48.082;11.628;2022-10-26T03:31:19;2.35;;;1.25;;
72408;SDS011;60402;48.082;11.628;2022-10-26T03:33:44;3.92;;;1.20;;
72408;SDS011;60402;48.082;11.628;2022-10-26T03:36:10;2.47;;;1.30;;
72408;SDS011;60402;48.082;11.628;2022-10-26T03:38:35;3.40;;;1.27;;
72408;SDS011;60402;48.082;11.628;2022-10-26T03:41:00;2.70;;;1.20;;
72408;SDS011;60402;48.082;11.628;2022-10-26T03:43:26;2.83;;;1.15;;
72408;SDS011;60402;48.082;11.628;2022-10-26T03:45:51;2.03;;;1.00;;
72408;SDS011;60402;48.082;11.628;2022-10-26T03:48:17;2.72;;;1.10;;
72408;SDS011;60402;48.082;11.628;2022-10-26T03:50:42;1.60;;;0.80;;
72408;SDS011;60402;48.082;11.628;2022-10-26T03:53:07;2.58;;;1.40;;
72408;SDS011;60402;48.082;11.628;2022-10-26T03:55:33;3.40;;;1.00;;
72408;SDS011;60402;48.082;11.628;2022-10-26T03:57:58;3.83;;;1.20;;
72408;SDS011;60402;48.082;11.628;2022-10-26T04:00:23;2.10;;;0.95;;
72408;SDS011;60402;48.082;11.628;2022-10-26T04:02:56;3.33;;;1.30;;
72408;SDS011;60402;48.082;11.628;2022-10-26T04:05:23;2.78;;;0.65;;
72408;SDS011;60402;48.082;11.628;2022-10-26T04:07:56;2.42;;;1.08;;
72408;SDS011;60402;48.082;11.628;2022-10-26T04:10:24;2.33;;;0.93;;
72408;SDS011;60402;48.082;11.628;2022-10-26T04:12:50;2.65;;;1.10;;
72408;SDS011;60402;48.082;11.628;2022-10-26T04:15:16;1.80;;;1.00;;
72408;SDS011;60402;48.082;11.628;2022-10-26T04:17:42;3.13;;;1.00;;
72408;SDS011;60402;48.082;11.628;2022-10-26T04:20:08;2.15;;;0.80;;
72408;SDS011;60402;48.082;11.628;2022-10-26T04:22:33;3.42;;;0.93;;
72408;SDS011;60402;48.082;11.628;2022-10-26T04:25:00;1.75;;;0.90;;
72408;SDS011;60402;48.082;11.628;2022-10-26T04:27:26;2.50;;;1.00;;
72408;SDS011;60402;48.082;11.628;2022-10-26T04:29:51;2.75;;;0.90;;
72408;SDS011;60402;48.082;11.628;2022-10-26T04:32:16;1.92;;;0.93;;
72408;SDS011;60402;48.082;11.628;2022-10-26T04:34:41;2.25;;;0.93;;
72408;SDS011;60402;48.082;11.628;2022-10-26T04:37:07;1.58;;;0.82;;
72408;SDS011;60402;48.082;11.628;2022-10-26T04:39:32;1.58;;;0.82;;
72408;SDS011;60402;48.082;11.628;2022-10-26T04:41:58;1.95;;;0.90;;
72408;SDS011;60402;48.082;11.628;2022-10-26T04:44:23;2.08;;;1.10;;
72408;SDS011;60402;48.082;11.628;2022-10-26T04:46:48;1.73;;;0.88;;
72408;SDS011;60402;48.082;11.628;2022-10-26T04:49:16;2.70;;;1.10;;
72408;SDS011;60402;48.082;11.628;2022-10-26T04:51:42;1.88;;;0.98;;
72408;SDS011;60402;48.082;11.628;2022-10-26T04:54:07;1.70;;;1.00;;
72408;SDS011;60402;48.082;11.628;2022-10-26T04:56:32;1.75;;;0.80;;
72408;SDS011;60402;48.082;11.628;2022-10-26T04:58:58;2.08;;;1.02;;
72408;SDS011;60402;48.082;11.628;2022-10-26T05:01:24;2.92;;;0.82;;
72408;SDS011;60402;48.082;11.628;2022-10-26T05:03:49;3.35;;;1.05;;
72408;SDS011;60402;48.082;11.628;2022-10-26T05:06:16;1.75;;;0.77;;
72408;SDS011;60402;48.082;11.628;2022-10-26T05:08:41;2.40;;;1.27;;
72408;SDS011;60402;48.082;11.628;2022-10-26T05:11:07;2.47;;;1.10;;
72408;SDS011;60402;48.082;11.628;2022-10-26T05:13:32;2.60;;;0.95;;
72408;SDS011;60402;48.082;11.628;2022-10-26T05:15:57;2.50;;;0.93;;
72408;SDS011;60402;48.082;11.628;2022-10-26T05:18:23;1.65;;;0.88;;
72408;SDS011;60402;48.082;11.628;2022-10-26T05:20:51;3.03;;;1.00;;
72408;SDS011;60402;48.082;11.628;2022-10-26T05:23:17;1.77;;;1.20;;
72408;SDS011;60402;48.082;11.628;2022-10-26T05:25:42;3.50;;;1.20;;
72408;SDS011;60402;48.082;11.628;2022-10-26T05:28:09;2.63;;;0.90;;
72408;SDS011;60402;48.082;11.628;2022-10-26T05:30:39;3.40;;;1.23;;
72408;SDS011;60402;48.082;11.628;2022-10-26T05:33:05;3.05;;;1.00;;
72408;SDS011;60402;48.082;11.628;2022-10-26T05:35:31;2.53;;;0.93;;
72408;SDS011;60402;48.082;11.628;2022-10-26T05:37:58;2.20;;;0.85;;
72408;SDS011;60402;48.082;11.628;2022-10-26T05:40:23;2.63;;;1.20;;
72408;SDS011;60402;48.082;11.628;2022-10-26T05:42:49;6.90;;;1.42;;
72408;SDS011;60402;48.082;11.628;2022-10-26T05:45:15;1.55;;;0.82;;
72408;SDS011;60402;48.082;11.628;2022-10-26T05:50:09;2.78;;;1.05;;
72408;SDS011;60402;48.082;11.628;2022-10-26T05:52:43;2.90;;;1.00;;
72408;SDS011;60402;48.082;11.628;2022-10-26T05:55:10;2.58;;;1.00;;
72408;SDS011;60402;48.082;11.628;2022-10-26T05:57:38;3.67;;;1.23;;
72408;SDS011;60402;48.082;11.628;2022-10-26T06:00:08;3.88;;;1.40;;
72408;SDS011;60402;48.082;11.628;2022-10-26T06:02:42;3.75;;;1.40;;
72408;SDS011;60402;48.082;11.628;2022-10-26T06:05:25;4.47;;;1.23;;
72408;SDS011;60402;48.082;11.628;2022-10-26T06:07:54;4.82;;;1.23;;
72408;SDS011;60402;48.082;11.628;2022-10-26T06:10:20;4.35;;;1.15;;
72408;SDS011;60402;48.082;11.628;2022-10-26T06:12:45;3.22;;;1.15;;
72408;SDS011;60402;48.082;11.628;2022-10-26T06:15:18;3.10;;;1.15;;
72408;SDS011;60402;48.082;11.628;2022-10-26T06:20:29;3.80;;;1.60;;
72408;SDS011;60402;48.082;11.628;2022-10-26T06:25:32;4.23;;;1.40;;
72408;SDS011;60402;48.082;11.628;2022-10-26T06:30:39;4.53;;;1.10;;
72408;SDS011;60402;48.082;11.628;2022-10-26T06:33:05;3.63;;;1.10;;
72408;SDS011;60402;48.082;11.628;2022-10-26T06:38:09;4.88;;;1.33;;
72408;SDS011;60402;48.082;11.628;2022-10-26T06:40:39;3.08;;;1.13;;
72408;SDS011;60402;48.082;11.628;2022-10-26T06:43:11;2.75;;;1.13;;
72408;SDS011;60402;48.082;11.628;2022-10-26T06:45:41;3.75;;;1.40;;
72408;SDS011;60402;48.082;11.628;2022-10-26T06:48:09;5.05;;;1.48;;
72408;SDS011;60402;48.082;11.628;2022-10-26T06:50:52;5.50;;;1.30;;
72408;SDS011;60402;48.082;11.628;2022-10-26T06:56:09;4.43;;;1.00;;
72408;SDS011;60402;48.082;11.628;2022-10-26T06:58:35;7.00;;;1.38;;
72408;SDS011;60402;48.082;11.628;2022-10-26T07:01:01;5.25;;;1.30;;
72408;SDS011;60402;48.082;11.628;2022-10-26T07:03:27;2.92;;;1.27;;
72408;SDS011;60402;48.082;11.628;2022-10-26T07:05:52;2.15;;;1.25;;
72408;SDS011;60402;48.082;11.628;2022-10-26T07:08:18;4.47;;;1.05;;
72408;SDS011;60402;48.082;11.628;2022-10-26T07:10:44;3.85;;;1.10;;
72408;SDS011;60402;48.082;11.628;2022-10-26T07:13:10;2.30;;;1.00;;
72408;SDS011;60402;48.082;11.628;2022-10-26T07:15:36;2.22;;;0.85;;
72408;SDS011;60402;48.082;11.628;2022-10-26T07:18:03;3.55;;;0.80;;
72408;SDS011;60402;48.082;11.628;2022-10-26T07:20:39;3.95;;;1.00;;
72408;SDS011;60402;48.082;11.628;2022-10-26T07:23:06;2.05;;;0.95;;
72408;SDS011;60402;48.082;11.628;2022-10-26T07:25:33;4.40;;;1.33;;
72408;SDS011;60402;48.082;11.628;2022-10-26T07:28:04;1.58;;;0.85;;
72408;SDS011;60402;48.082;11.628;2022-10-26T07:30:30;2.63;;;0.93;;
72408;SDS011;60402;48.082;11.628;2022-10-26T07:32:59;1.13;;;0.73;;
72408;SDS011;60402;48.082;11.628;2022-10-26T07:35:24;3.65;;;1.50;;
72408;SDS011;60402;48.082;11.628;2022-10-26T07:37:50;3.63;;;1.00;;
72408;SDS011;60402;48.082;11.628;2022-10-26T07:40:15;4.60;;;1.10;;
72408;SDS011;60402;48.082;11.628;2022-10-26T07:42:40;2.80;;;0.93;;
72408;SDS011;60402;48.082;11.628;2022-10-26T07:45:06;2.28;;;0.80;;
72408;SDS011;60402;48.082;11.628;2022-10-26T07:47:31;2.50;;;0.73;;
72408;SDS011;60402;48.082;11.628;2022-10-26T07:49:57;2.92;;;1.10;;
72408;SDS011;60402;48.082;11.628;2022-10-26T07:52:22;2.72;;;0.95;;
72408;SDS011;60402;48.082;11.628;2022-10-26T07:54:47;3.97;;;1.20;;
72408;SDS011;60402;48.082;11.628;2022-10-26T07:57:14;4.03;;;0.97;;
72408;SDS011;60402;48.082;11.628;2022-10-26T07:59:41;2.72;;;1.38;;
72408;SDS011;60402;48.082;11.628;2022-10-26T08:02:07;2.75;;;1.02;;
72408;SDS011;60402;48.082;11.628;2022-10-26T08:04:36;2.83;;;0.80;;
72408;SDS011;60402;48.082;11.628;2022-10-26T08:07:02;1.65;;;0.82;;
72408;SDS011;60402;48.082;11.628;2022-10-26T08:09:27;2.05;;;0.77;;
72408;SDS011;60402;48.082;11.628;2022-10-26T08:11:52;3.92;;;1.38;;
72408;SDS011;60402;48.082;11.628;2022-10-26T08:14:18;3.25;;;1.15;;
72408;SDS011;60402;48.082;11.628;2022-10-26T08:16:49;1.90;;;1.00;;
72408;SDS011;60402;48.082;11.628;2022-10-26T08:19:24;1.73;;;0.80;;
72408;SDS011;60402;48.082;11.628;2022-10-26T08:21:50;4.15;;;1.17;;
72408;SDS011;60402;48.082;11.628;2022-10-26T08:24:15;2.42;;;0.70;;
72408;SDS011;60402;48.082;11.628;2022-10-26T08:26:41;4.50;;;0.93;;
72408;SDS011;60402;48.082;11.628;2022-10-26T08:29:09;2.83;;;1.42;;
72408;SDS011;60402;48.082;11.628;2022-10-26T08:31:42;2.13;;;0.75;;
72408;SDS011;60402;48.082;11.628;2022-10-26T08:34:11;1.52;;;0.80;;
72408;SDS011;60402;48.082;11.628;2022-10-26T08:36:36;2.45;;;0.57;;
72408;SDS011;60402;48.082;11.628;2022-10-26T08:41:37;1.15;;;0.55;;
72408;SDS011;60402;48.082;11.628;2022-10-26T08:47:06;3.17;;;0.75;;
72408;SDS011;60402;48.082;11.628;2022-10-26T08:49:42;2.22;;;0.60;;
72408;SDS011;60402;48.082;11.628;2022-10-26T08:52:14;1.98;;;0.68;;
72408;SDS011;60402;48.082;11.628;2022-10-26T08:54:46;3.53;;;1.27;;
72408;SDS011;60402;48.082;11.628;2022-10-26T08:57:27;2.42;;;0.68;;
72408;SDS011;60402;48.082;11.628;2022-10-26T09:02:28;3.63;;;0.80;;
72408;SDS011;60402;48.082;11.628;2022-10-26T09:04:54;1.92;;;0.70;;
72408;SDS011;60402;48.082;11.628;2022-10-26T09:10:19;2.00;;;0.45;;
72408;SDS011;60402;48.082;11.628;2022-10-26T09:23:48;2.17;;;0.60;;
72408;SDS011;60402;48.082;11.628;2022-10-26T09:29:12;1.90;;;0.50;;
72408;SDS011;60402;48.082;11.628;2022-10-26T09:31:39;3.92;;;0.60;;
72408;SDS011;60402;48.082;11.628;2022-10-26T09:34:06;1.85;;;1.00;;
72408;SDS011;60402;48.082;11.628;2022-10-26T09:36:42;1.30;;;0.73;;
72408;SDS011;60402;48.082;11.628;2022-10-26T09:39:12;1.33;;;0.55;;
72408;SDS011;60402;48.082;11.628;2022-10-26T09:41:48;2.42;;;0.65;;
72408;SDS011;60402;48.082;11.628;2022-10-26T09:44:33;2.90;;;0.77;;
72408;SDS011;60402;48.082;11.628;2022-10-26T09:47:13;1.67;;;0.63;;
72408;SDS011;60402;48.082;11.628;2022-10-26T09:49:49;1.75;;;0.90;;
72408;SDS011;60402;48.082;11.628;2022-10-26T09:52:19;2.10;;;0.60;;
72408;SDS011;60402;48.082;11.628;2022-10-26T09:54:45;3.75;;;1.08;;
72408;SDS011;60402;48.082;11.628;2022-10-26T09:57:12;1.48;;;0.60;;
72408;SDS011;60402;48.082;11.628;2022-10-26T09:59:39;2.72;;;0.63;;
72408;SDS011;60402;48.082;11.628;2022-10-26T10:04:56;3.45;;;0.70;;
72408;SDS011;60402;48.082;11.628;2022-10-26T10:07:21;4.38;;;0.75;;
72408;SDS011;60402;48.082;11.628;2022-10-26T10:09:53;3.50;;;0.77;;
72408;SDS011;60402;48.082;11.628;2022-10-26T10:12:32;1.85;;;0.47;;
72408;SDS011;60402;48.082;11.628;2022-10-26T10:14:57;4.47;;;0.68;;
72408;SDS011;60402;48.082;11.628;2022-10-26T10:17:23;3.13;;;0.60;;
72408;SDS011;60402;48.082;11.628;2022-10-26T10:19:49;2.83;;;1.00;;
72408;SDS011;60402;48.082;11.628;2022-10-26T10:27:23;1.50;;;0.50;;
72408;SDS011;60402;48.082;11.628;2022-10-26T10:29:51;3.72;;;0.50;;
72408;SDS011;60402;48.082;11.628;2022-10-26T10:32:20;1.95;;;0.50;;
72408;SDS011;60402;48.082;11.628;2022-10-26T10:34:50;2.17;;;0.73;;
72408;SDS011;60402;48.082;11.628;2022-10-26T10:39:55;3.67;;;1.02;;
72408;SDS011;60402;48.082;11.628;2022-10-26T10:42:24;2.50;;;0.80;;
72408;SDS011;60402;48.082;11.628;2022-10-26T10:44:55;2.70;;;0.95;;
72408;SDS011;60402;48.082;11.628;2022-10-26T10:47:22;2.60;;;0.90;;
72408;SDS011;60402;48.082;11.628;2022-10-26T10:49:56;2.25;;;0.90;;
72408;SDS011;60402;48.082;11.628;2022-10-26T10:52:25;4.30;;;0.95;;
72408;SDS011;60402;48.082;11.628;2022-10-26T10:54:55;2.58;;;0.60;;
72408;SDS011;60402;48.082;11.628;2022-10-26T11:00:10;3.75;;;0.70;;
72408;SDS011;60402;48.082;11.628;2022-10-26T11:05:52;3.25;;;0.77;;
72408;SDS011;60402;48.082;11.628;2022-10-26T11:08:26;5.60;;;0.90;;
72408;SDS011;60402;48.082;11.628;2022-10-26T11:10:58;2.65;;;1.10;;
72408;SDS011;60402;48.082;11.628;2022-10-26T11:13:26;3.30;;;0.90;;
72408;SDS011;60402;48.082;11.628;2022-10-26T11:16:15;2.60;;;0.60;;
72408;SDS011;60402;48.082;11.628;2022-10-26T11:18:50;3.80;;;0.88;;
72408;SDS011;60402;48.082;11.628;2022-10-26T11:21:27;2.88;;;0.68;;
72408;SDS011;60402;48.082;11.628;2022-10-26T11:26:44;2.45;;;0.70;;
72408;SDS011;60402;48.082;11.628;2022-10-26T11:29:25;2.90;;;0.90;;
72408;SDS011;60402;48.082;11.628;2022-10-26T11:32:12;6.05;;;1.58;;
72408;SDS011;60402;48.082;11.628;2022-10-26T11:42:54;5.25;;;0.80;;
72408;SDS011;60402;48.082;11.628;2022-10-26T11:45:24;4.97;;;0.90;;
72408;SDS011;60402;48.082;11.628;2022-10-26T11:50:59;3.65;;;0.90;;
72408;SDS011;60402;48.082;11.628;2022-10-26T11:53:27;6.13;;;1.08;;
72408;SDS011;60402;48.082;11.628;2022-10-26T11:55:59;3.50;;;1.00;;
72408;SDS011;60402;48.082;11.628;2022-10-26T11:58:27;10.38;;;2.17;;
72408;SDS011;60402;48.082;11.628;2022-10-26T12:00:57;4.97;;;2.08;;
72408;SDS011;60402;48.082;11.628;2022-10-26T12:03:31;5.43;;;1.42;;
72408;SDS011;60402;48.082;11.628;2022-10-26T12:05:59;2.72;;;1.10;;
72408;SDS011;60402;48.082;11.628;2022-10-26T12:22:08;3.97;;;1.10;;
72408;SDS011;60402;48.082;11.628;2022-10-26T12:24:38;6.68;;;1.45;;
72408;SDS011;60402;48.082;11.628;2022-10-26T12:27:18;5.32;;;0.90;;
72408;SDS011;60402;48.082;11.628;2022-10-26T13:59:47;3.95;;;1.10;;
72408;SDS011;60402;48.082;11.628;2022-10-26T14:25:49;6.10;;;1.27;;
72408;SDS011;60402;48.082;11.628;2022-10-26T15:13:14;5.63;;;1.60;;
72408;SDS011;60402;48.082;11.628;2022-10-26T15:15:42;5.68;;;1.90;;
72408;SDS011;60402;48.082;11.628;2022-10-26T15:18:18;6.00;;;2.63;;
72408;SDS011;60402;48.082;11.628;2022-10-26T15:20:48;7.90;;;2.90;;
72408;SDS011;60402;48.082;11.628;2022-10-26T15:23:14;9.38;;;2.30;;
72408;SDS011;60402;48.082;11.628;2022-10-26T15:25:47;7.35;;;2.30;;
72408;SDS011;60402;48.082;11.628;2022-10-26T15:28:28;5.35;;;1.65;;
72408;SDS011;60402;48.082;11.628;2022-10-26T15:33:30;6.88;;;1.88;;
72408;SDS011;60402;48.082;11.628;2022-10-26T15:38:44;5.32;;;1.23;;
72408;SDS011;60402;48.082;11.628;2022-10-26T15:41:22;5.90;;;1.40;;
72408;SDS011;60402;48.082;11.628;2022-10-26T15:43:50;6.40;;;1.48;;
72408;SDS011;60402;48.082;11.628;2022-10-26T15:46:17;5.22;;;1.65;;
72408;SDS011;60402;48.082;11.628;2022-10-26T15:48:44;4.25;;;1.20;;
72408;SDS011;60402;48.082;11.628;2022-10-26T15:51:17;7.28;;;1.92;;
72408;SDS011;60402;48.082;11.628;2022-10-26T15:53:43;5.57;;;1.63;;
72408;SDS011;60402;48.082;11.628;2022-10-26T15:59:25;5.00;;;1.45;;
72408;SDS011;60402;48.082;11.628;2022-10-26T16:01:51;6.47;;;1.45;;
72408;SDS011;60402;48.082;11.628;2022-10-26T16:04:16;6.00;;;1.83;;
72408;SDS011;60402;48.082;11.628;2022-10-26T16:06:43;4.97;;;1.60;;
72408;SDS011;60402;48.082;11.628;2022-10-26T16:09:11;6.40;;;1.80;;
72408;SDS011;60402;48.082;11.628;2022-10-26T16:11:40;7.82;;;1.63;;
72408;SDS011;60402;48.082;11.628;2022-10-26T16:14:06;5.00;;;1.30;;
72408;SDS011;60402;48.082;11.628;2022-10-26T16:16:31;9.95;;;2.13;;
72408;SDS011;60402;48.082;11.628;2022-10-26T16:18:56;4.30;;;1.40;;
72408;SDS011;60402;48.082;11.628;2022-10-26T16:21:22;8.55;;;1.92;;
72408;SDS011;60402;48.082;11.628;2022-10-26T16:23:51;9.00;;;2.35;;
72408;SDS011;60402;48.082;11.628;2022-10-26T16:26:18;6.07;;;2.03;;
72408;SDS011;60402;48.082;11.628;2022-10-26T16:28:45;7.55;;;2.08;;
72408;SDS011;60402;48.082;11.628;2022-10-26T16:31:11;5.28;;;2.20;;
72408;SDS011;60402;48.082;11.628;2022-10-26T16:33:38;8.65;;;1.73;;
72408;SDS011;60402;48.082;11.628;2022-10-26T16:36:03;5.63;;;1.58;;
72408;SDS011;60402;48.082;11.628;2022-10-26T16:38:30;6.63;;;2.17;;
72408;SDS011;60402;48.082;11.628;2022-10-26T16:41:10;14.95;;;5.97;;
72408;SDS011;60402;48.082;11.628;2022-10-26T16:43:37;7.43;;;3.08;;
72408;SDS011;60402;48.082;11.628;2022-10-26T16:46:08;7.18;;;3.13;;
72408;SDS011;60402;48.082;11.628;2022-10-26T16:48:44;9.30;;;3.08;;
72408;SDS011;60402;48.082;11.628;2022-10-26T16:51:11;8.20;;;3.33;;
72408;SDS011;60402;48.082;11.628;2022-10-26T16:53:41;5.95;;;1.98;;
72408;SDS011;60402;48.082;11.628;2022-10-26T16:56:10;6.10;;;1.73;;
72408;SDS011;60402;48.082;11.628;2022-10-26T16:58:37;8.13;;;1.90;;
72408;SDS011;60402;48.082;11.628;2022-10-26T17:01:03;5.18;;;1.65;;
72408;SDS011;60402;48.082;11.628;2022-10-26T17:03:29;6.85;;;2.55;;
72408;SDS011;60402;48.082;11.628;2022-10-26T17:05:59;7.25;;;1.60;;
72408;SDS011;60402;48.082;11.628;2022-10-26T17:08:26;6.25;;;1.60;;
72408;SDS011;60402;48.082;11.628;2022-10-26T17:10:52;8.35;;;1.50;;
72408;SDS011;60402;48.082;11.628;2022-10-26T17:13:26;7.32;;;1.98;;
72408;SDS011;60402;48.082;11.628;2022-10-26T17:15:51;5.57;;;1.60;;
72408;SDS011;60402;48.082;11.628;2022-10-26T17:18:16;6.90;;;1.90;;
72408;SDS011;60402;48.082;11.628;2022-10-26T17:20:47;5.38;;;1.98;;
72408;SDS011;60402;48.082;11.628;2022-10-26T17:23:13;7.80;;;2.00;;
72408;SDS011;60402;48.082;11.628;2022-10-26T17:25:39;7.82;;;2.10;;
72408;SDS011;60402;48.082;11.628;2022-10-26T17:28:04;7.03;;;1.95;;
72408;SDS011;60402;48.082;11.628;2022-10-26T17:30:29;8.20;;;2.30;;
72408;SDS011;60402;48.082;11.628;2022-10-26T17:32:55;7.70;;;2.25;;
72408;SDS011;60402;48.082;11.628;2022-10-26T17:35:20;7.18;;;2.30;;
72408;SDS011;60402;48.082;11.628;2022-10-26T17:37:46;6.03;;;2.00;;
72408;SDS011;60402;48.082;11.628;2022-10-26T17:40:11;5.60;;;2.08;;
72408;SDS011;60402;48.082;11.628;2022-10-26T17:42:36;8.45;;;2.17;;
72408;SDS011;60402;48.082;11.628;2022-10-26T17:45:02;8.05;;;2.45;;
72408;SDS011;60402;48.082;11.628;2022-10-26T17:47:27;4.88;;;1.95;;
72408;SDS011;60402;48.082;11.628;2022-10-26T17:49:53;5.38;;;1.95;;
72408;SDS011;60402;48.082;11.628;2022-10-26T17:52:18;5.65;;;2.00;;
72408;SDS011;60402;48.082;11.628;2022-10-26T17:54:43;8.70;;;2.33;;
72408;SDS011;60402;48.082;11.628;2022-10-26T17:57:09;5.05;;;1.95;;
72408;SDS011;60402;48.082;11.628;2022-10-26T19:33:10;9.55;;;2.45;;
72408;SDS011;60402;48.082;11.628;2022-10-26T19:35:35;4.85;;;1.73;;
72408;SDS011;60402;48.082;11.628;2022-10-26T19:38:01;4.95;;;1.80;;
72408;SDS011;60402;48.082;11.628;2022-10-26T19:40:26;6.10;;;1.90;;
72408;SDS011;60402;48.082;11.628;2022-10-26T19:42:52;4.77;;;1.93;;
72408;SDS011;60402;48.082;11.628;2022-10-26T19:45:17;4.43;;;1.80;;
72408;SDS011;60402;48.082;11.628;2022-10-26T19:47:42;5.80;;;1.70;;
72408;SDS011;60402;48.082;11.628;2022-10-26T19:50:08;4.88;;;1.60;;
72408;SDS011;60402;48.082;11.628;2022-10-26T19:52:33;5.30;;;1.60;;
72408;SDS011;60402;48.082;11.628;2022-10-26T19:55:00;4.25;;;1.52;;
72408;SDS011;60402;48.082;11.628;2022-10-26T19:57:25;4.53;;;2.10;;
72408;SDS011;60402;48.082;11.628;2022-10-26T19:59:51;4.68;;;1.60;;
72408;SDS011;60402;48.082;11.628;2022-10-26T20:02:16;6.75;;;1.70;;
72408;SDS011;60402;48.082;11.628;2022-10-26T20:04:41;5.67;;;1.70;;
72408;SDS011;60402;48.082;11.628;2022-10-26T20:07:06;4.95;;;1.70;;
72408;SDS011;60402;48.082;11.628;2022-10-26T20:09:32;5.85;;;1.90;;
72408;SDS011;60402;48.082;11.628;2022-10-26T20:11:57;7.03;;;1.88;;
72408;SDS011;60402;48.082;11.628;2022-10-26T20:14:22;4.55;;;1.70;;
72408;SDS011;60402;48.082;11.628;2022-10-26T20:16:48;5.57;;;1.55;;
72408;SDS011;60402;48.082;11.628;2022-10-26T20:19:13;6.88;;;1.90;;
72408;SDS011;60402;48.082;11.628;2022-10-26T20:21:38;4.05;;;1.65;;
72408;SDS011;60402;48.082;11.628;2022-10-26T20:24:04;5.75;;;1.70;;
72408;SDS011;60402;48.082;11.628;2022-10-26T20:26:30;5.60;;;1.95;;
72408;SDS011;60402;48.082;11.628;2022-10-26T20:28:55;8.32;;;2.05;;
72408;SDS011;60402;48.082;11.628;2022-10-26T20:31:20;5.32;;;2.03;;
72408;SDS011;60402;48.082;11.628;2022-10-26T20:33:49;5.68;;;1.83;;
72408;SDS011;60402;48.082;11.628;2022-10-26T20:36:19;7.90;;;2.00;;
72408;SDS011;60402;48.082;11.628;2022-10-26T20:38:44;5.85;;;1.95;;
72408;SDS011;60402;48.082;11.628;2022-10-26T20:41:10;5.95;;;1.90;;
72408;SDS011;60402;48.082;11.628;2022-10-26T20:43:38;7.30;;;2.20;;
72408;SDS011;60402;48.082;11.628;2022-10-26T20:46:05;7.35;;;2.40;;